createdAt,value
2022-12-01T00:04:30.478Z,11.71
2022-12-01T00:10:14.373Z,11.72
2022-12-01T00:15:57.360Z,11.73
2022-12-01T00:21:40.461Z,11.74
2022-12-01T00:27:23.429Z,11.77
2022-12-01T00:33:06.406Z,11.78
2022-12-01T00:38:51.523Z,11.83
2022-12-01T00:44:34.481Z,11.84
2022-12-01T00:50:17.567Z,11.84
2022-12-01T00:56:00.489Z,11.86
2022-12-01T01:01:44.542Z,11.88
2022-12-01T01:07:29.571Z,11.88
2022-12-01T01:13:14.286Z,11.89
2022-12-01T01:18:57.274Z,11.89
2022-12-01T01:24:41.032Z,11.89
2022-12-01T01:30:23.976Z,11.89
2022-12-01T01:36:07.726Z,11.9
2022-12-01T01:41:50.760Z,11.91
2022-12-01T01:47:35.807Z,11.91
2022-12-01T01:53:18.941Z,11.96
2022-12-01T01:59:02.554Z,11.94
2022-12-01T02:04:46.464Z,11.96
2022-12-01T02:10:34.563Z,11.97
2022-12-01T02:16:20.544Z,11.99
2022-12-01T02:22:10.116Z,12.01
2022-12-01T02:28:01.891Z,12.01
2022-12-01T02:33:50.997Z,12.03
2022-12-01T02:39:38.058Z,12.04
2022-12-01T02:45:24.574Z,12.04
2022-12-01T02:51:11.382Z,12.04
2022-12-01T02:56:55.423Z,12.03
2022-12-01T03:02:43.480Z,12.07
2022-12-01T03:08:32.274Z,12.08
2022-12-01T03:14:21.764Z,12.08
2022-12-01T03:20:06.958Z,12.09
2022-12-01T03:25:52.252Z,12.09
2022-12-01T03:31:36.997Z,12.08
2022-12-01T03:37:23.181Z,12.08
2022-12-01T03:43:07.488Z,12.08
2022-12-01T03:48:50.860Z,12.1
2022-12-01T03:54:39.735Z,12.08
2022-12-01T04:00:22.914Z,12.09
2022-12-01T04:06:06.200Z,12.09
2022-12-01T04:11:48.870Z,12.09
2022-12-01T04:17:31.889Z,12.06
2022-12-01T04:23:15.214Z,12.04
2022-12-01T04:28:59.121Z,12.05
2022-12-01T04:34:42.149Z,12.05
2022-12-01T04:40:25.265Z,12.06
2022-12-01T04:46:08.799Z,12.04
2022-12-01T04:51:52.165Z,12.04
2022-12-01T04:57:35.084Z,12.02
2022-12-01T05:03:18.095Z,12
2022-12-01T05:09:01.414Z,12.03
2022-12-01T05:14:45.504Z,12.02
2022-12-01T05:20:28.677Z,12.02
2022-12-01T05:26:11.967Z,12.01
2022-12-01T05:31:54.912Z,12
2022-12-01T05:37:38.337Z,12.02
2022-12-01T05:43:27.104Z,12.06
2022-12-01T05:49:11.731Z,12.08
2022-12-01T05:54:55.758Z,12.06
2022-12-01T06:00:45.242Z,12.05
2022-12-01T06:06:29.501Z,12.07
2022-12-01T06:12:12.976Z,12.1
2022-12-01T06:17:58.329Z,12.09
2022-12-01T06:23:41.400Z,12.09
2022-12-01T06:29:24.489Z,12.08
2022-12-01T06:35:09.757Z,12.07
2022-12-01T06:40:58.908Z,12.06
2022-12-01T06:46:42.118Z,12.08
2022-12-01T06:52:25.341Z,12.21
2022-12-01T06:58:08.390Z,12.13
2022-12-01T07:03:51.925Z,12.08
2022-12-01T07:09:34.973Z,12.1
2022-12-01T07:15:18.302Z,12.1
2022-12-01T07:21:03.630Z,12.09
2022-12-01T07:26:46.586Z,12.11
2022-12-01T07:32:30.787Z,12.11
2022-12-01T07:38:16.586Z,12.17
2022-12-01T07:44:04.488Z,12.2
2022-12-01T07:49:47.892Z,12.21
2022-12-01T07:55:33.179Z,12.18
2022-12-01T08:01:18.904Z,12.17
2022-12-01T08:07:03.160Z,12.17
2022-12-01T08:12:47.245Z,12.14
2022-12-01T08:18:30.450Z,12.16
2022-12-01T08:24:14.436Z,12.14
2022-12-01T08:29:57.381Z,12.19
2022-12-01T08:35:40.664Z,12.19
2022-12-01T08:41:24.095Z,12.19
2022-12-01T08:47:06.950Z,12.18
2022-12-01T08:52:57.352Z,12.24
2022-12-01T08:58:40.509Z,12.24
2022-12-01T09:04:24.573Z,12.22
2022-12-01T09:10:08.346Z,12.22
2022-12-01T09:15:58.834Z,12.26
2022-12-01T09:21:42.352Z,12.3
2022-12-01T09:27:25.226Z,12.32
2022-12-01T09:33:09.265Z,12.34
2022-12-01T09:38:52.358Z,12.39
2022-12-01T09:44:38.538Z,12.38
2022-12-01T09:50:22.448Z,12.41
2022-12-01T09:56:11.602Z,12.41
2022-12-01T10:01:58.695Z,12.46
2022-12-01T10:07:44.370Z,12.48
2022-12-01T10:13:28.721Z,12.49
2022-12-01T10:19:15.242Z,12.54
2022-12-01T10:25:01.795Z,12.54
2022-12-01T10:30:48.972Z,12.53
2022-12-01T10:36:33.149Z,12.58
2022-12-01T10:42:18.938Z,12.59
2022-12-01T10:48:13.468Z,12.59
2022-12-01T10:54:06.159Z,12.61
2022-12-01T10:59:55.516Z,12.66
2022-12-01T11:05:40.725Z,12.71
2022-12-01T11:11:28.923Z,12.75
2022-12-01T11:17:24.419Z,12.8
2022-12-01T11:23:22.056Z,12.87
2022-12-01T11:29:06.804Z,12.98
2022-12-01T11:34:54.294Z,13.08
2022-12-01T11:40:42.180Z,13.15
2022-12-01T11:46:28.266Z,13.25
2022-12-01T11:52:22.587Z,13.34
2022-12-01T11:58:08.101Z,13.43
2022-12-01T12:03:56.158Z,13.45
2022-12-01T12:09:46.200Z,13.47
2022-12-01T12:15:36.958Z,13.51
2022-12-01T12:21:25.382Z,13.48
2022-12-01T12:27:12.377Z,13.43
2022-12-01T12:33:04.154Z,13.38
2022-12-01T12:38:54.059Z,13.35
2022-12-01T12:44:46.645Z,13.31
2022-12-01T12:50:34.699Z,13.36
2022-12-01T12:56:20.331Z,13.3
2022-12-01T13:02:08.366Z,13.29
2022-12-01T13:07:53.747Z,13.33
2022-12-01T13:13:40.564Z,13.29
2022-12-01T13:19:26.858Z,13.27
2022-12-01T13:25:11.514Z,13.26
2022-12-01T13:31:07.025Z,13.24
2022-12-01T13:36:54.284Z,13.29
2022-12-01T13:42:37.729Z,13.26
2022-12-01T13:48:35.462Z,13.22
2022-12-01T13:54:29.661Z,13.2
2022-12-01T14:00:23.937Z,13.18
2022-12-01T14:06:19.376Z,13.2
2022-12-01T14:12:03.703Z,13.16
2022-12-01T14:17:47.628Z,13.14
2022-12-01T14:23:32.006Z,13.14
2022-12-01T14:29:38.372Z,13.12
2022-12-01T14:35:21.428Z,13.17
2022-12-01T14:41:06.829Z,13.13
2022-12-01T14:46:52.914Z,13.11
2022-12-01T14:52:37.521Z,13.07
2022-12-01T14:58:21.952Z,13.05
2022-12-01T15:04:06.359Z,13
2022-12-01T15:10:01.517Z,12.97
2022-12-01T15:15:54.343Z,12.95
2022-12-01T15:21:37.780Z,12.93
2022-12-01T15:27:31.237Z,12.88
2022-12-01T15:33:22.757Z,12.86
2022-12-01T15:39:20.477Z,12.89
2022-12-01T15:45:08.464Z,12.83
2022-12-01T15:50:56.279Z,12.79
2022-12-01T15:56:40.725Z,12.74
2022-12-01T16:02:26.778Z,12.67
2022-12-01T16:08:18.397Z,12.64
2022-12-01T16:14:03.002Z,12.61
2022-12-01T16:19:45.882Z,12.58
2022-12-01T16:25:33.492Z,12.52
2022-12-01T16:31:21.860Z,12.51
2022-12-01T16:37:04.874Z,12.52
2022-12-01T16:42:48.994Z,12.5
2022-12-01T16:48:33.343Z,12.48
2022-12-01T16:54:16.804Z,12.46
2022-12-01T17:00:03.271Z,12.44
2022-12-01T17:05:47.258Z,12.44
2022-12-01T17:11:30.288Z,12.44
2022-12-01T17:17:13.175Z,12.45
2022-12-01T17:22:56.500Z,12.43
2022-12-01T17:28:40.490Z,12.43
2022-12-01T17:34:23.432Z,12.42
2022-12-01T17:40:07.642Z,12.42
2022-12-01T17:45:51.237Z,12.4
2022-12-01T17:51:35.353Z,12.41
2022-12-01T17:57:19.030Z,12.42
2022-12-01T18:03:03.211Z,12.44
2022-12-01T18:08:46.655Z,12.45
2022-12-01T18:14:29.653Z,12.44
2022-12-01T18:20:13.481Z,12.47
2022-12-01T18:25:56.342Z,12.47
2022-12-01T18:31:40.672Z,12.45
2022-12-01T18:37:23.843Z,12.43
2022-12-01T18:43:07.034Z,12.41
2022-12-01T18:48:51.013Z,12.38
2022-12-01T18:54:34.086Z,12.36
2022-12-01T19:00:19.170Z,12.33
2022-12-01T19:06:23.756Z,12.35
2022-12-01T19:12:07.275Z,12.34
2022-12-01T19:17:50.624Z,12.33
2022-12-01T19:23:34.123Z,12.31
2022-12-01T19:29:17.326Z,12.28
2022-12-01T19:35:00.341Z,12.28
2022-12-01T19:40:43.492Z,12.27
2022-12-01T19:46:26.762Z,12.26
2022-12-01T19:52:10.968Z,12.25
2022-12-01T19:57:53.936Z,12.24
2022-12-01T20:03:37.467Z,12.24
2022-12-01T20:09:20.504Z,12.25
2022-12-01T20:15:04.058Z,12.23
2022-12-01T20:20:47.991Z,12.22
2022-12-01T20:26:31.897Z,12.21
2022-12-01T20:32:17.163Z,12.22
2022-12-01T20:38:05.944Z,12.24
2022-12-01T20:43:50.108Z,12.23
2022-12-01T20:49:33.133Z,12.21
2022-12-01T20:55:17.492Z,12.22
2022-12-01T21:01:06.007Z,12.21
2022-12-01T21:06:49.492Z,12.24
2022-12-01T21:12:32.620Z,12.23
2022-12-01T21:18:19.336Z,12.21
2022-12-01T21:24:10.848Z,12.19
2022-12-01T21:29:55.094Z,12.23
2022-12-01T21:35:38.130Z,12.23
2022-12-01T21:41:24.256Z,12.22
2022-12-01T21:47:13.495Z,12.22
2022-12-01T21:52:57.721Z,12.23
2022-12-01T21:58:40.734Z,12.21
2022-12-01T22:04:25.685Z,12.19
2022-12-01T22:10:21.388Z,12.17
2022-12-01T22:16:09.546Z,12.19
2022-12-01T22:21:57.254Z,12.18
2022-12-01T22:27:41.723Z,12.16
2022-12-01T22:33:32.683Z,12.16
2022-12-01T22:39:25.736Z,12.2
2022-12-01T22:45:16.490Z,12.2
2022-12-01T22:51:05.672Z,12.18
2022-12-01T22:56:49.977Z,12.18
2022-12-01T23:02:33.904Z,12.16
2022-12-01T23:08:21.901Z,12.17
2022-12-01T23:14:06.816Z,12.19
2022-12-01T23:19:50.414Z,12.21
2022-12-01T23:25:33.890Z,12.18
2022-12-01T23:31:16.880Z,12.17
2022-12-01T23:37:02.450Z,12.16
2022-12-01T23:42:45.466Z,12.17
2022-12-01T23:48:32.603Z,12.1
2022-12-01T23:54:16.660Z,12.09
